Time;durP1;ratioP1;P1;durP2;ratioP2;P2;SDS_P1;SDS_P2;PMS_P1;PMS_P2;Temp;Humidity;BMP_temperature;BMP_pressure;BME280_temperature;BME280_humidity;BME280_pressure;Samples;Min_cycle;Max_cycle;Signal;HPM_P1;HPM_P2
2023/04/28 00:01:41;;;;;;;;;;;;;;;14.97;46.76;101091.13;4883258;29;19916;-79
2023/04/28 00:04:33;;;;;;;;;;;;;;;14.74;47.06;101086.31;4880917;29;19915;-79
2023/04/28 00:07:25;;;;;;;;;;;;;;;14.80;47.82;101088.53;4879114;29;19967;-80
2023/04/28 00:10:17;;;;;;;;;;;;;;;14.88;48.00;101084.91;4908978;29;19919;-81
2023/04/28 00:13:09;;;;;;;;;;;;;;;14.96;48.47;101077.78;4906548;29;19916;-80
2023/04/28 00:15:59;;;;;;;;;;;;;;;15.21;52.94;101076.72;4879927;29;20295;-80
2023/04/28 00:18:51;;;;;;;;;;;;;;;15.90;53.74;101086.94;4884950;29;19920;-80
2023/04/28 00:21:43;;;;;;;;;;;;;;;15.96;50.09;101080.09;4914877;29;20306;-79
2023/04/28 00:24:35;;;;;;;;;;;;;;;16.36;52.55;101074.69;4911796;29;19915;-80
2023/04/28 00:27:25;;;;;;;;;;;;;;;16.70;51.85;101076.16;4902557;29;19916;-81
2023/04/28 00:30:17;;;;;;;;;;;;;;;16.58;50.03;101070.66;4899367;29;19919;-79
2023/04/28 00:33:09;;;;;;;;;;;;;;;16.74;50.74;101071.56;4900174;29;19915;-79
2023/04/28 00:36:04;;;;;;;;;;;;;;;16.73;50.30;101071.91;4899288;29;19920;-79
2023/04/28 00:38:56;;;;;;;;;;;;;;;16.91;51.41;101076.00;4904265;29;19923;-80
2023/04/28 00:41:47;;;;;;;;;;;;;;;17.09;51.07;101077.28;4902309;29;19915;-81
2023/04/28 00:44:39;;;;;;;;;;;;;;;17.27;50.34;101073.06;4899356;29;19915;-81
2023/04/28 00:47:37;;;;;;;;;;;;;;;17.34;50.33;101075.22;4902092;29;19920;-80
2023/04/28 00:50:29;;;;;;;;;;;;;;;17.41;50.10;101081.72;4898037;29;19919;-80
2023/04/28 00:53:22;;;;;;;;;;;;;;;17.54;49.82;101082.44;4897529;29;19916;-78
2023/04/28 00:56:14;;;;;;;;;;;;;;;17.53;49.67;101084.38;4897635;29;19919;-80
2023/04/28 00:59:06;;;;;;;;;;;;;;;17.57;49.57;101081.75;4897693;29;19915;-80
2023/04/28 01:01:58;;;;;;;;;;;;;;;17.63;49.41;101074.03;4901804;29;19916;-79
2023/04/28 01:04:51;;;;;;;;;;;;;;;17.65;49.44;101082.75;4897667;29;19915;-80
2023/04/28 01:07:43;;;;;;;;;;;;;;;17.68;49.20;101088.31;4897599;29;19915;-81
2023/04/28 01:10:35;;;;;;;;;;;;;;;17.70;49.29;101076.97;4901077;29;19915;-78
2023/04/28 01:13:33;;;;;;;;;;;;;;;17.71;48.99;101073.06;4886281;29;19915;-80
2023/04/28 01:16:24;;;;;;;;;;;;;;;17.64;49.20;101067.38;4901804;29;19919;-80
2023/04/28 01:19:16;;;;;;;;;;;;;;;17.71;49.10;101065.63;4900008;29;19915;-80
2023/04/28 01:22:09;;;;;;;;;;;;;;;17.73;48.87;101070.75;4899204;29;19915;-79
2023/04/28 01:24:59;;;;;;;;;;;;;;;17.75;48.91;101076.72;4913239;29;19915;-80
2023/04/28 01:27:52;;;;;;;;;;;;;;;17.64;48.62;101068.19;4899777;29;19915;-79
2023/04/28 01:30:44;;;;;;;;;;;;;;;17.62;48.89;101061.47;4899142;29;19919;-81
2023/04/28 01:33:36;;;;;;;;;;;;;;;17.61;48.33;101077.16;4904170;29;20339;-81
2023/04/28 01:36:28;;;;;;;;;;;;;;;17.45;49.09;101073.56;4901727;29;19919;-80
2023/04/28 01:39:20;;;;;;;;;;;;;;;17.57;49.15;101079.00;4904933;29;19915;-79
2023/04/28 01:42:12;;;;;;;;;;;;;;;17.62;48.97;101078.75;4903036;29;19915;-80
2023/04/28 01:45:04;;;;;;;;;;;;;;;17.68;49.01;101076.53;4895564;29;19916;-81
2023/04/28 01:47:56;;;;;;;;;;;;;;;17.66;49.26;101076.91;4926681;29;19916;-79
2023/04/28 01:50:45;;;;;;;;;;;;;;;17.67;49.02;101086.75;4917135;29;19914;-79
2023/04/28 01:53:37;;;;;;;;;;;;;;;17.70;48.06;101079.72;4931167;29;19915;-79
2023/04/28 01:56:29;;;;;;;;;;;;;;;17.60;46.74;101083.81;4922124;29;19919;-79
2023/04/28 01:59:22;;;;;;;;;;;;;;;17.67;48.88;101097.75;4907279;29;19915;-79
2023/04/28 02:02:09;;;;;;;;;;;;;;;17.62;48.85;101094.47;4899376;29;19916;-78
2023/04/28 02:04:59;;;;;;;;;;;;;;;17.49;47.13;101096.44;4883175;29;19916;-79
2023/04/28 02:07:52;;;;;;;;;;;;;;;17.36;49.54;101101.22;4895098;29;19919;-78
2023/04/28 02:10:44;;;;;;;;;;;;;;;17.48;49.33;101101.13;4884812;29;19923;-79
2023/04/28 02:13:36;;;;;;;;;;;;;;;17.62;49.08;101102.72;4882709;29;19919;-77
2023/04/28 02:16:28;;;;;;;;;;;;;;;17.27;44.59;101097.81;4881100;29;19920;-78
2023/04/28 02:19:18;;;;;;;;;;;;;;;16.71;44.09;101085.97;4884197;29;19916;-78
2023/04/28 02:22:10;;;;;;;;;;;;;;;16.11;44.25;101076.66;4893219;29;19924;-79
2023/04/28 02:25:03;;;;;;;;;;;;;;;15.54;45.64;101075.94;4879809;29;19920;-78
2023/04/28 02:27:52;;;;;;;;;;;;;;;15.17;47.43;101075.81;4902099;29;19915;-80
2023/04/28 02:30:44;;;;;;;;;;;;;;;15.04;47.84;101089.78;4900058;29;19915;-79
2023/04/28 02:33:41;;;;;;;;;;;;;;;14.83;48.33;101093.31;4897375;29;19919;-77
2023/04/28 02:36:33;;;;;;;;;;;;;;;14.71;49.00;101095.22;4904092;29;19919;-80
2023/04/28 02:39:25;;;;;;;;;;;;;;;14.67;49.15;101092.34;4904599;29;19915;-79
2023/04/28 02:42:19;;;;;;;;;;;;;;;14.41;50.41;101098.00;4896566;29;19916;-78
2023/04/28 02:45:08;;;;;;;;;;;;;;;14.42;50.59;101091.41;4882240;29;20364;-78
2023/04/28 02:48:02;;;;;;;;;;;;;;;14.29;51.36;101095.13;4885339;29;19935;-77
2023/04/28 02:50:52;;;;;;;;;;;;;;;14.31;51.02;101098.34;4896047;29;19915;-80
2023/04/28 02:53:39;;;;;;;;;;;;;;;14.28;55.52;101096.25;4900404;29;19915;-80
2023/04/28 02:56:31;;;;;;;;;;;;;;;14.24;51.19;101098.06;4907434;29;19919;-80
2023/04/28 02:59:23;;;;;;;;;;;;;;;14.07;51.50;101109.88;4902174;29;19915;-81
2023/04/28 03:02:15;;;;;;;;;;;;;;;14.01;51.57;101104.94;4906392;29;19915;-81
2023/04/28 03:05:07;;;;;;;;;;;;;;;13.88;51.70;101112.22;4900071;29;19919;-79
2023/04/28 03:07:59;;;;;;;;;;;;;;;13.84;51.86;101121.41;4899507;29;19915;-79
2023/04/28 03:10:51;;;;;;;;;;;;;;;13.95;51.48;101128.13;4920995;29;19919;-79
2023/04/28 03:13:43;;;;;;;;;;;;;;;13.73;52.28;101123.69;4908029;29;19916;-79
2023/04/28 03:16:34;;;;;;;;;;;;;;;13.77;52.14;101140.22;4880426;29;20376;-79
2023/04/28 03:19:27;;;;;;;;;;;;;;;13.70;52.23;101133.34;4898431;29;19920;-81
2023/04/28 03:22:18;;;;;;;;;;;;;;;13.54;52.16;101124.06;4923920;29;19916;-81
2023/04/28 03:25:11;;;;;;;;;;;;;;;13.64;51.73;101118.25;4899507;29;19922;-79
2023/04/28 03:28:09;;;;;;;;;;;;;;;13.67;51.43;101119.50;4921874;29;19916;-79
2023/04/28 03:31:02;;;;;;;;;;;;;;;13.51;51.81;101116.50;4886407;29;19915;-78
2023/04/28 03:33:54;;;;;;;;;;;;;;;13.65;51.31;101102.66;4910956;29;19915;-80
2023/04/28 03:36:46;;;;;;;;;;;;;;;13.62;51.06;101098.63;4915750;29;19919;-81
2023/04/28 03:39:44;;;;;;;;;;;;;;;13.56;51.23;101101.88;4918064;29;19915;-80
2023/04/28 03:42:36;;;;;;;;;;;;;;;13.55;51.17;101092.06;4923484;29;19918;-80
2023/04/28 03:45:30;;;;;;;;;;;;;;;13.62;51.14;101097.81;4924682;29;19915;-80
2023/04/28 03:48:22;;;;;;;;;;;;;;;13.56;51.37;101093.69;4908438;29;20375;-80
2023/04/28 03:51:14;;;;;;;;;;;;;;;13.17;52.72;101091.97;4930035;29;20391;-80
2023/04/28 03:54:06;;;;;;;;;;;;;;;13.40;52.69;101098.88;4894762;29;20390;-80
2023/04/28 03:56:58;;;;;;;;;;;;;;;12.78;53.83;101095.66;4905292;29;19919;-80
2023/04/28 03:59:50;;;;;;;;;;;;;;;12.32;55.66;101093.50;4927321;29;19916;-79
2023/04/28 04:02:39;;;;;;;;;;;;;;;12.00;56.67;101097.41;4910660;29;19916;-80
2023/04/28 04:05:31;;;;;;;;;;;;;;;11.88;57.61;101100.75;4893465;29;20290;-79
2023/04/28 04:08:21;;;;;;;;;;;;;;;11.84;57.70;101107.94;4899518;29;19916;-81
2023/04/28 04:11:13;;;;;;;;;;;;;;;12.26;55.52;101106.47;4905866;29;19915;-79
2023/04/28 04:14:05;;;;;;;;;;;;;;;12.34;55.02;101099.47;4910057;29;19915;-79
2023/04/28 04:16:56;;;;;;;;;;;;;;;12.30;55.68;101109.38;4905427;29;19922;-80
2023/04/28 04:19:48;;;;;;;;;;;;;;;12.67;54.32;101118.91;4907333;29;19915;-80
2023/04/28 04:22:40;;;;;;;;;;;;;;;12.79;53.81;101122.63;4915953;29;19915;-79
2023/04/28 04:25:32;;;;;;;;;;;;;;;12.75;53.98;101118.91;4904044;29;20394;-79
2023/04/28 04:28:25;;;;;;;;;;;;;;;12.86;54.04;101120.22;4907800;29;19915;-79
2023/04/28 04:31:17;;;;;;;;;;;;;;;13.32;55.93;101128.91;4896664;29;19919;-80
2023/04/28 04:34:09;;;;;;;;;;;;;;;14.01;58.65;101132.28;4920381;29;19915;-80
2023/04/28 04:37:00;;;;;;;;;;;;;;;13.94;55.08;101130.03;4907183;29;20383;-79
2023/04/28 04:39:50;;;;;;;;;;;;;;;13.85;53.93;101123.81;4896441;29;19916;-77
2023/04/28 04:42:42;;;;;;;;;;;;;;;13.82;53.95;101118.97;4896321;29;19915;-77
2023/04/28 04:45:39;;;;;;;;;;;;;;;13.68;54.81;101107.47;4907773;29;19915;-79
2023/04/28 04:48:31;;;;;;;;;;;;;;;13.76;55.81;101112.09;4890941;29;19915;-79
2023/04/28 04:51:23;;;;;;;;;;;;;;;13.82;55.18;101120.91;4903004;29;20419;-79
2023/04/28 04:54:14;;;;;;;;;;;;;;;14.07;57.42;101125.47;4906415;29;19915;-80
2023/04/28 04:57:06;;;;;;;;;;;;;;;14.58;58.07;101123.66;4910079;29;19919;-80
2023/04/28 05:00:16;;;;;;;;;;;;;;;15.17;56.81;101122.38;4909687;29;19923;-81
2023/04/28 05:03:08;;;;;;;;;;;;;;;15.39;55.36;101123.94;4908126;29;19920;-79
2023/04/28 05:06:01;;;;;;;;;;;;;;;15.40;53.61;101122.78;4920547;29;19915;-78
2023/04/28 05:08:57;;;;;;;;;;;;;;;14.95;52.06;101125.47;4916291;29;19919;-79
2023/04/28 05:11:49;;;;;;;;;;;;;;;14.48;53.30;101122.88;4907826;29;19915;-79
2023/04/28 05:14:41;;;;;;;;;;;;;;;14.80;56.03;101126.06;4899098;29;20311;-79
2023/04/28 05:17:33;;;;;;;;;;;;;;;15.19;55.76;101139.25;4901928;29;20312;-81
2023/04/28 05:20:25;;;;;;;;;;;;;;;15.63;54.92;101142.44;4904813;29;19920;-81
2023/04/28 05:23:17;;;;;;;;;;;;;;;16.07;53.58;101144.34;4905046;29;19919;-78
2023/04/28 05:26:10;;;;;;;;;;;;;;;16.13;53.69;101151.22;4897964;29;19915;-78
2023/04/28 05:28:59;;;;;;;;;;;;;;;15.59;52.89;101147.00;4912873;29;20387;-84
2023/04/28 05:31:49;;;;;;;;;;;;;;;15.12;53.31;101141.75;4894349;29;20394;-75
2023/04/28 05:34:44;;;;;;;;;;;;;;;15.33;53.49;101145.28;4930439;29;19915;-75
2023/04/28 05:37:36;;;;;;;;;;;;;;;16.13;53.74;101151.22;4920964;29;19919;-75
2023/04/28 05:40:28;;;;;;;;;;;;;;;15.69;53.84;101157.53;4910517;29;19919;-76
2023/04/28 05:43:20;;;;;;;;;;;;;;;15.76;53.54;101155.84;4910713;29;19915;-75
2023/04/28 05:46:12;;;;;;;;;;;;;;;15.53;53.74;101162.88;4914674;29;19915;-75
2023/04/28 05:49:04;;;;;;;;;;;;;;;15.58;54.34;101151.69;4899395;29;19915;-76
2023/04/28 05:51:57;;;;;;;;;;;;;;;15.46;53.54;101146.13;4916053;29;19919;-76
2023/04/28 05:54:49;;;;;;;;;;;;;;;15.25;52.79;101151.63;4901075;29;20368;-76
2023/04/28 05:57:41;;;;;;;;;;;;;;;15.87;54.12;101139.75;4916892;29;20469;-76
2023/04/28 06:00:34;;;;;;;;;;;;;;;16.69;51.44;101154.22;4902971;29;19916;-76
2023/04/28 06:03:25;;;;;;;;;;;;;;;16.56;51.01;101155.31;4896440;29;19919;-76
2023/04/28 06:06:17;;;;;;;;;;;;;;;16.58;50.47;101172.25;4901010;29;20389;-76
2023/04/28 06:09:06;;;;;;;;;;;;;;;16.38;51.66;101178.66;4905315;29;19915;-76
2023/04/28 06:11:58;;;;;;;;;;;;;;;16.62;51.35;101184.19;4916130;29;19915;-77
2023/04/28 06:14:50;;;;;;;;;;;;;;;16.65;51.56;101178.81;4934369;29;19915;-78
2023/04/28 06:17:42;;;;;;;;;;;;;;;16.77;51.33;101179.94;4919612;29;19944;-76
2023/04/28 06:20:34;;;;;;;;;;;;;;;16.78;50.74;101176.84;4922980;29;19918;-77
2023/04/28 06:23:26;;;;;;;;;;;;;;;16.69;50.38;101173.44;4921018;29;20532;-78
2023/04/28 06:26:18;;;;;;;;;;;;;;;16.67;51.11;101165.53;4918536;29;19919;-77
2023/04/28 06:29:10;;;;;;;;;;;;;;;16.07;51.39;101166.28;4922555;29;20291;-77
2023/04/28 06:32:03;;;;;;;;;;;;;;;16.05;52.56;101171.31;4906500;29;19915;-77
2023/04/28 06:34:55;;;;;;;;;;;;;;;16.20;51.86;101165.16;4920489;29;20390;-79
2023/04/28 06:37:46;;;;;;;;;;;;;;;16.18;51.99;101164.72;4897397;29;19919;-78
2023/04/28 06:40:38;;;;;;;;;;;;;;;16.17;52.37;101168.59;4887398;29;19916;-78
2023/04/28 06:43:30;;;;;;;;;;;;;;;16.55;51.68;101172.97;4876565;29;19916;-78
2023/04/28 06:46:28;;;;;;;;;;;;;;;16.73;51.16;101182.56;4875044;29;19915;-79
2023/04/28 06:49:21;;;;;;;;;;;;;;;16.82;50.70;101177.75;4895855;29;19916;-79
2023/04/28 06:52:13;;;;;;;;;;;;;;;16.77;51.01;101177.97;4904701;29;19915;-79
2023/04/28 06:55:04;;;;;;;;;;;;;;;16.82;50.86;101177.75;4905967;29;19919;-78
2023/04/28 06:57:56;;;;;;;;;;;;;;;16.90;51.03;101179.59;4906571;29;19923;-79
2023/04/28 07:00:49;;;;;;;;;;;;;;;16.72;51.07;101169.19;4896881;29;19915;-80
2023/04/28 07:03:38;;;;;;;;;;;;;;;16.66;51.33;101174.91;4898647;29;20423;-79
2023/04/28 07:06:30;;;;;;;;;;;;;;;16.63;50.90;101172.06;4893995;29;19915;-79
2023/04/28 07:09:22;;;;;;;;;;;;;;;16.82;50.94;101171.44;4900620;29;19915;-80
2023/04/28 07:12:14;;;;;;;;;;;;;;;16.92;51.08;101163.53;4908938;29;19915;-79
2023/04/28 07:15:06;;;;;;;;;;;;;;;17.03;50.84;101161.91;4924665;29;20374;-78
2023/04/28 07:17:55;;;;;;;;;;;;;;;16.94;49.91;101175.00;4896061;29;19923;-79
2023/04/28 07:20:47;;;;;;;;;;;;;;;16.99;50.19;101177.50;4928006;29;20137;-80
2023/04/28 07:23:39;;;;;;;;;;;;;;;17.07;50.61;101171.06;4908346;29;20371;-82
2023/04/28 07:26:31;;;;;;;;;;;;;;;17.08;49.93;101171.84;4909175;29;19915;-82
2023/04/28 07:29:21;;;;;;;;;;;;;;;17.19;49.35;101170.22;4913470;29;20375;-81
2023/04/28 07:32:12;;;;;;;;;;;;;;;17.10;47.31;101172.31;4914352;29;19915;-81
2023/04/28 07:35:04;;;;;;;;;;;;;;;17.20;49.85;101166.34;4907197;29;20302;-81
2023/04/28 07:37:56;;;;;;;;;;;;;;;17.25;49.45;101168.03;4925926;29;19923;-81
2023/04/28 07:40:48;;;;;;;;;;;;;;;17.25;48.06;101166.09;4910720;29;19919;-82
2023/04/28 07:43:40;;;;;;;;;;;;;;;17.19;46.41;101166.69;4904048;29;19915;-83
2023/04/28 07:46:32;;;;;;;;;;;;;;;17.13;44.81;101171.63;4903249;29;19915;-83
2023/04/28 07:49:24;;;;;;;;;;;;;;;17.22;48.23;101171.50;4908752;29;19915;-80
2023/04/28 07:52:16;;;;;;;;;;;;;;;17.19;43.81;101167.47;4908797;29;19915;-81
2023/04/28 07:55:07;;;;;;;;;;;;;;;17.07;43.06;101167.50;4898767;29;19916;-81
2023/04/28 07:57:59;;;;;;;;;;;;;;;17.03;41.60;101161.91;4903255;29;20375;-82
2023/04/28 08:00:49;;;;;;;;;;;;;;;17.05;40.17;101178.88;4928924;29;19915;-81
2023/04/28 08:03:41;;;;;;;;;;;;;;;17.16;44.48;101165.44;4915359;29;19915;-82
2023/04/28 08:06:33;;;;;;;;;;;;;;;17.15;39.93;101174.81;4881767;29;19916;-81
2023/04/28 08:09:25;;;;;;;;;;;;;;;17.22;42.16;101171.50;4883112;29;19916;-83
2023/04/28 08:12:17;;;;;;;;;;;;;;;17.17;39.06;101185.47;4897649;29;19915;-82
2023/04/28 08:15:09;;;;;;;;;;;;;;;17.17;40.00;101177.22;4881561;29;19916;-83
2023/04/28 08:18:01;;;;;;;;;;;;;;;17.18;42.34;101170.56;4894736;29;19919;-81
2023/04/28 08:20:53;;;;;;;;;;;;;;;17.21;37.19;101158.91;4897103;29;19915;-82
2023/04/28 08:23:42;;;;;;;;;;;;;;;17.24;35.25;101161.72;4908919;29;19915;-80
2023/04/28 08:26:34;;;;;;;;;;;;;;;19.12;33.34;101161.78;4922238;29;20386;-82
2023/04/28 08:29:24;;;;;;;;;;;;;;;17.77;34.94;101155.00;4917038;29;19945;-80
2023/04/28 08:32:16;;;;;;;;;;;;;;;17.64;36.00;101150.69;4920654;29;19915;-80
2023/04/28 08:35:08;;;;;;;;;;;;;;;17.60;37.53;101144.31;4930153;29;19919;-79
2023/04/28 08:38:00;;;;;;;;;;;;;;;17.48;35.82;101147.06;4910783;29;20300;-81
2023/04/28 08:40:52;;;;;;;;;;;;;;;17.57;35.47;101131.25;4900224;29;19915;-80
2023/04/28 08:43:44;;;;;;;;;;;;;;;17.47;34.74;101132.53;4907926;29;19915;-80
2023/04/28 08:46:36;;;;;;;;;;;;;;;17.52;35.78;101135.03;4906969;29;19915;-84
2023/04/28 08:49:34;;;;;;;;;;;;;;;17.52;34.92;101140.53;4898819;29;19919;-79
2023/04/28 08:52:27;;;;;;;;;;;;;;;17.60;35.11;101136.06;4896558;29;19916;-78
2023/04/28 08:55:17;;;;;;;;;;;;;;;17.59;37.46;101147.38;4896592;29;19919;-79
2023/04/28 08:58:09;;;;;;;;;;;;;;;17.71;35.61;101142.66;4901632;29;19923;-79
2023/04/28 09:01:01;;;;;;;;;;;;;;;17.62;34.81;101138.47;4897540;29;19915;-79
2023/04/28 09:03:55;;;;;;;;;;;;;;;17.77;33.36;101146.75;4911799;29;19915;-79
2023/04/28 09:06:47;;;;;;;;;;;;;;;17.72;35.71;101141.50;4905820;29;19915;-79
2023/04/28 09:09:39;;;;;;;;;;;;;;;17.79;35.87;101143.63;4909015;29;19915;-80
2023/04/28 09:12:37;;;;;;;;;;;;;;;17.79;36.40;101140.88;4909175;29;19915;-79
2023/04/28 09:15:39;;;;;;;;;;;;;;;17.82;33.95;101143.72;4908333;29;19919;-79
2023/04/28 09:18:31;;;;;;;;;;;;;;;17.90;36.68;101145.50;4917812;29;19919;-78
2023/04/28 09:21:23;;;;;;;;;;;;;;;17.92;34.78;101137.72;4916292;29;19915;-79
2023/04/28 09:24:26;;;;;;;;;;;;;;;18.08;33.04;101134.16;4909850;29;19915;-78
2023/04/28 09:27:27;;;;;;;;;;;;;;;18.09;32.67;101125.53;4929337;29;19952;-77
2023/04/28 09:30:19;;;;;;;;;;;;;;;18.17;33.05;101134.78;4919505;29;19919;-78
2023/04/28 09:33:11;;;;;;;;;;;;;;;18.30;32.05;101142.56;4917760;29;19915;-78
2023/04/28 09:36:03;;;;;;;;;;;;;;;18.41;30.60;101147.53;4909249;29;20303;-79
2023/04/28 09:38:58;;;;;;;;;;;;;;;18.24;33.06;101143.19;4918334;29;19916;-80
2023/04/28 09:41:50;;;;;;;;;;;;;;;18.29;32.57;101149.22;4901554;29;19915;-78
2023/04/28 09:44:42;;;;;;;;;;;;;;;18.43;31.49;101148.78;4896531;29;19916;-80
2023/04/28 09:47:32;;;;;;;;;;;;;;;18.64;31.11;101135.50;4904024;29;19915;-80
2023/04/28 09:50:24;;;;;;;;;;;;;;;19.07;32.28;101128.19;4898007;29;20286;-86
2023/04/28 09:53:16;;;;;;;;;;;;;;;19.28;31.11;101131.38;4912918;29;19923;-87
2023/04/28 09:56:08;;;;;;;;;;;;;;;19.44;29.26;101140.41;4912770;29;20295;-88
2023/04/28 09:59:01;;;;;;;;;;;;;;;19.67;28.04;101131.34;4889093;29;19916;-86
2023/04/28 10:01:51;;;;;;;;;;;;;;;19.77;28.97;101131.53;4919906;29;19915;-85
2023/04/28 10:04:44;;;;;;;;;;;;;;;19.76;28.84;101118.13;4902326;29;20375;-86
2023/04/28 10:07:36;;;;;;;;;;;;;;;19.83;29.19;101101.66;4903326;29;19915;-85
2023/04/28 10:10:28;;;;;;;;;;;;;;;19.80;28.96;101102.41;4914878;29;19915;-86
2023/04/28 10:13:20;;;;;;;;;;;;;;;19.92;28.41;101088.41;4924856;29;19915;-86
2023/04/28 10:16:12;;;;;;;;;;;;;;;19.89;28.47;101092.72;4918552;29;19915;-85
2023/04/28 10:19:05;;;;;;;;;;;;;;;19.85;28.73;101091.88;4923553;29;19916;-86
2023/04/28 10:22:21;;;;;;;;;;;;;;;19.92;29.53;101091.97;4911702;29;19915;-86
2023/04/28 10:25:16;;;;;;;;;;;;;;;20.00;29.06;101079.91;4896272;29;20383;-87
2023/04/28 10:28:08;;;;;;;;;;;;;;;20.09;28.92;101074.09;4906140;29;20371;-86
2023/04/28 10:31:14;;;;;;;;;;;;;;;20.01;26.66;101077.94;4914067;29;20297;-86
2023/04/28 10:34:23;;;;;;;;;;;;;;;20.12;27.60;101070.59;4918325;29;19915;-86
2023/04/28 10:37:18;;;;;;;;;;;;;;;20.22;28.06;101058.91;4905532;29;19919;-87
2023/04/28 10:40:36;;;;;;;;;;;;;;;20.24;28.35;101045.53;4905070;29;19923;-87
2023/04/28 10:43:29;;;;;;;;;;;;;;;20.23;28.23;101060.50;4897616;29;19916;-87
2023/04/28 10:46:21;;;;;;;;;;;;;;;20.39;27.82;101058.41;4899040;29;19916;-87
2023/04/28 10:49:13;;;;;;;;;;;;;;;20.39;27.81;101046.56;4917798;29;19916;-87
2023/04/28 10:52:02;;;;;;;;;;;;;;;20.38;27.66;101045.75;4927845;29;20306;-87
2023/04/28 10:55:11;;;;;;;;;;;;;;;20.36;28.66;101039.84;4907707;29;19915;-85
2023/04/28 10:58:21;;;;;;;;;;;;;;;20.50;28.03;101044.75;4934254;29;20290;-85
2023/04/28 11:01:23;;;;;;;;;;;;;;;20.53;27.75;101041.22;4936332;29;19915;-85
2023/04/28 11:04:15;;;;;;;;;;;;;;;20.56;28.76;101054.31;4934925;29;19914;-86
2023/04/28 11:07:13;;;;;;;;;;;;;;;20.71;28.51;101052.53;4923533;29;19915;-86
2023/04/28 11:10:05;;;;;;;;;;;;;;;20.74;28.00;101052.56;4923526;29;19915;-86
2023/04/28 11:13:13;;;;;;;;;;;;;;;20.80;28.34;101050.25;4906968;29;19916;-86
2023/04/28 11:16:08;;;;;;;;;;;;;;;20.81;26.63;101057.38;4911396;29;19916;-85
2023/04/28 11:19:01;;;;;;;;;;;;;;;20.87;26.01;101058.66;4904524;29;19919;-86
2023/04/28 11:21:53;;;;;;;;;;;;;;;20.75;26.20;101056.13;4904758;29;19919;-88
2023/04/28 11:24:55;;;;;;;;;;;;;;;20.84;25.38;101051.91;4902429;29;19915;-88
2023/04/28 11:27:47;;;;;;;;;;;;;;;20.93;25.81;101046.06;4916408;29;20335;-89
2023/04/28 11:30:40;;;;;;;;;;;;;;;20.99;25.38;101044.56;4894775;29;19919;-90
2023/04/28 11:33:32;;;;;;;;;;;;;;;20.99;26.15;101041.78;4923830;29;19915;-90
2023/04/28 11:36:28;;;;;;;;;;;;;;;21.06;26.99;101033.59;4906951;29;19914;-89
2023/04/28 11:39:24;;;;;;;;;;;;;;;21.18;28.27;101038.09;4910706;29;19915;-90
2023/04/28 11:42:16;;;;;;;;;;;;;;;21.18;28.15;101038.88;4892531;29;19916;-90
2023/04/28 11:45:08;;;;;;;;;;;;;;;21.05;28.38;101029.22;4902137;29;20295;-89
2023/04/28 11:48:00;;;;;;;;;;;;;;;21.15;28.64;101028.56;4911222;29;19923;-90
2023/04/28 11:50:49;;;;;;;;;;;;;;;21.23;28.33;101019.16;4935931;29;20382;-90
2023/04/28 11:53:45;;;;;;;;;;;;;;;21.30;28.63;101022.00;4916177;29;20101;-90
2023/04/28 11:56:40;;;;;;;;;;;;;;;21.42;29.12;101014.63;4920474;29;19915;-89
2023/04/28 11:59:33;;;;;;;;;;;;;;;21.38;29.25;101000.75;4922441;29;19915;-89
2023/04/28 12:02:29;;;;;;;;;;;;;;;21.34;29.09;101000.72;4921555;29;19915;-88
2023/04/28 12:05:21;;;;;;;;;;;;;;;21.41;29.70;100997.22;4917644;29;20388;-87
2023/04/28 12:08:13;;;;;;;;;;;;;;;21.44;28.16;100992.88;4915118;29;19915;-88
2023/04/28 12:11:12;;;;;;;;;;;;;;;21.54;28.85;100992.16;4906830;29;19915;-88
2023/04/28 12:14:08;;;;;;;;;;;;;;;21.60;28.46;100991.44;4891271;29;20384;-88
2023/04/28 12:17:00;;;;;;;;;;;;;;;21.61;27.82;100986.72;4902433;29;20330;-88
2023/04/28 12:19:52;;;;;;;;;;;;;;;21.56;28.41;100981.53;4912423;29;19916;-87
2023/04/28 12:22:50;;;;;;;;;;;;;;;21.62;27.87;100982.75;4894320;29;19915;-88
2023/04/28 12:26:13;;;;;;;;;;;;;;;21.58;28.19;100973.66;4887050;29;19915;-86
2023/04/28 12:29:05;;;;;;;;;;;;;;;21.67;28.57;100968.56;4886201;29;19919;-87
2023/04/28 12:31:57;;;;;;;;;;;;;;;21.66;28.21;100970.53;4903022;29;19915;-87
2023/04/28 12:34:49;;;;;;;;;;;;;;;21.72;28.24;100968.22;4910826;29;19919;-87
2023/04/28 12:37:38;;;;;;;;;;;;;;;21.73;29.25;100967.03;4901283;29;20308;-87
2023/04/28 12:40:30;;;;;;;;;;;;;;;21.80;29.47;100958.75;4899628;29;19916;-87
2023/04/28 12:43:22;;;;;;;;;;;;;;;21.69;29.60;100958.69;4898629;29;19915;-87
2023/04/28 12:46:14;;;;;;;;;;;;;;;21.77;29.38;100954.81;4914160;29;19915;-87
2023/04/28 12:49:06;;;;;;;;;;;;;;;21.87;30.15;100950.53;4899986;29;19915;-87
2023/04/28 12:51:55;;;;;;;;;;;;;;;21.90;29.80;100938.66;4909569;29;19915;-88
2023/04/28 12:54:50;;;;;;;;;;;;;;;21.88;29.75;100943.81;4903286;29;19915;-87
2023/04/28 12:57:42;;;;;;;;;;;;;;;21.91;29.35;100929.19;4911481;29;20316;-87
2023/04/28 13:00:34;;;;;;;;;;;;;;;21.94;29.39;100933.19;4915543;29;19916;-87
2023/04/28 13:03:26;;;;;;;;;;;;;;;22.02;29.08;100923.72;4903334;29;19915;-87
2023/04/28 13:06:18;;;;;;;;;;;;;;;21.94;29.18;100920.13;4889695;29;19917;-88
2023/04/28 13:09:10;;;;;;;;;;;;;;;22.01;29.69;100922.13;4908486;29;20306;-87
2023/04/28 13:12:02;;;;;;;;;;;;;;;22.06;29.43;100916.22;4907748;29;19915;-87
2023/04/28 13:14:51;;;;;;;;;;;;;;;21.91;29.83;100909.78;4900585;29;19916;-85
2023/04/28 13:17:43;;;;;;;;;;;;;;;22.00;30.06;100903.91;4911181;29;19920;-87
2023/04/28 13:20:30;;;;;;;;;;;;;;;21.98;30.04;100906.31;4902102;29;20371;-88
2023/04/28 13:23:22;;;;;;;;;;;;;;;22.04;29.92;100890.91;4984419;23;19923;-74
2023/04/28 13:26:14;;;;;;;;;;;;;;;22.03;29.73;100890.13;4950226;28;19926;-75
2023/04/28 13:29:04;;;;;;;;;;;;;;;22.07;30.23;100899.22;4958323;28;19915;-74
2023/04/28 13:31:54;;;;;;;;;;;;;;;22.21;30.92;100889.38;4955395;28;19922;-75
2023/04/28 13:34:46;;;;;;;;;;;;;;;22.23;30.30;100875.94;4930807;29;19915;-75
2023/04/28 13:37:41;;;;;;;;;;;;;;;22.30;30.14;100884.28;4948582;28;19919;-74
2023/04/28 13:40:30;;;;;;;;;;;;;;;22.31;30.25;100875.56;4947735;28;19927;-74
2023/04/28 13:43:22;;;;;;;;;;;;;;;22.31;29.89;100881.09;4960082;28;19934;-75
2023/04/28 13:46:14;;;;;;;;;;;;;;;22.38;30.26;100875.59;4957504;28;20290;-75
2023/04/28 13:49:03;;;;;;;;;;;;;;;22.28;30.31;100867.25;4940786;28;19915;-75
2023/04/28 13:51:55;;;;;;;;;;;;;;;22.31;30.21;100866.47;4956106;28;20295;-74
2023/04/28 13:54:44;;;;;;;;;;;;;;;22.32;30.42;100848.66;4959771;28;19922;-76
2023/04/28 13:57:36;;;;;;;;;;;;;;;22.32;30.24;100840.34;4954245;28;19918;-75
2023/04/28 14:00:29;;;;;;;;;;;;;;;22.30;31.30;100834.41;4918631;29;19923;-74
2023/04/28 14:03:21;;;;;;;;;;;;;;;22.32;31.30;100826.50;4920452;29;19915;-75
2023/04/28 14:06:13;;;;;;;;;;;;;;;22.24;30.58;100822.13;4941672;29;19918;-75
2023/04/28 14:09:05;;;;;;;;;;;;;;;22.23;30.84;100817.75;4948070;28;19918;-75
2023/04/28 14:11:55;;;;;;;;;;;;;;;22.16;30.79;100815.75;4958180;28;19914;-74
2023/04/28 14:14:47;;;;;;;;;;;;;;;22.13;30.94;100828.44;4961629;28;19914;-75
2023/04/28 14:17:39;;;;;;;;;;;;;;;22.09;31.07;100819.31;4951070;28;19919;-75
2023/04/28 14:20:28;;;;;;;;;;;;;;;22.06;30.74;100806.22;4940473;29;19914;-75
2023/04/28 14:23:20;;;;;;;;;;;;;;;22.07;31.68;100807.81;4950875;28;19914;-75
2023/04/28 14:26:12;;;;;;;;;;;;;;;22.03;30.83;100807.03;4956007;28;19915;-76
2023/04/28 14:29:04;;;;;;;;;;;;;;;22.04;31.40;100791.19;4953676;28;20293;-74
2023/04/28 14:31:56;;;;;;;;;;;;;;;21.93;31.52;100793.91;4954115;28;19914;-74
2023/04/28 14:34:48;;;;;;;;;;;;;;;21.89;31.68;100782.00;4940842;28;19914;-74
2023/04/28 14:37:40;;;;;;;;;;;;;;;21.91;31.76;100779.66;4940783;28;19919;-75
2023/04/28 14:40:32;;;;;;;;;;;;;;;21.91;33.37;100789.91;4936939;28;19914;-75
2023/04/28 14:43:24;;;;;;;;;;;;;;;21.95;33.12;100788.78;4948108;29;19914;-74
2023/04/28 14:46:16;;;;;;;;;;;;;;;21.96;32.92;100787.59;4959599;28;20396;-74